Time;durP1;ratioP1;P1;durP2;ratioP2;P2;SDS_P1;SDS_P2;PMS_P1;PMS_P2;Temp;Humidity;BMP_temperature;BMP_pressure;BME280_temperature;BME280_humidity;BME280_pressure;Samples;Min_cycle;Max_cycle;Signal;HPM_P1;HPM_P2
2021/07/21 00:02:06;;;;;;;;;0.50;0.00;;;;;24.04;48.45;101665.88;6145584;23;62152;-80
2021/07/21 00:04:31;;;;;;;;;0.25;0.00;;;;;24.10;48.69;101670.16;6147844;23;45367;-78
2021/07/21 00:06:57;;;;;;;;;0.75;0.00;;;;;24.12;48.62;101676.28;6146488;23;45556;-78
2021/07/21 00:09:23;;;;;;;;;1.00;0.50;;;;;24.05;49.03;101676.47;6148558;23;45409;-78
2021/07/21 00:14:33;;;;;;;;;0.00;0.00;;;;;23.90;48.84;101653.06;6148699;23;45403;-78
2021/07/21 00:17:18;;;;;;;;;1.25;0.25;;;;;23.74;49.21;101631.44;6145827;23;45526;-78
2021/07/21 00:22:29;;;;;;;;;1.00;1.00;;;;;23.90;49.06;101663.72;6148372;23;45296;-78
2021/07/21 00:24:54;;;;;;;;;0.00;0.00;;;;;23.98;49.13;101680.25;6148446;23;45232;-78
2021/07/21 00:27:21;;;;;;;;;1.00;1.00;;;;;23.87;49.22;101658.50;6148451;23;45486;-78
2021/07/21 00:29:47;;;;;;;;;1.75;0.00;;;;;23.90;49.30;101667.25;6148176;23;46136;-79
2021/07/21 00:32:12;;;;;;;;;0.75;0.00;;;;;23.88;49.20;101670.84;6147901;23;45176;-78
2021/07/21 00:34:37;;;;;;;;;0.00;0.00;;;;;23.91;49.20;101671.63;6148690;23;45345;-78
2021/07/21 00:37:03;;;;;;;;;0.00;0.00;;;;;23.88;49.51;101668.19;6147994;23;47463;-78
2021/07/21 00:39:28;;;;;;;;;0.00;0.00;;;;;23.85;49.24;101677.16;6148222;23;45145;-78
2021/07/21 00:41:53;;;;;;;;;0.00;0.00;;;;;23.81;49.43;101670.19;6147627;23;47935;-78
2021/07/21 00:44:19;;;;;;;;;0.50;0.50;;;;;23.84;49.26;101674.53;6148382;23;45280;-78
2021/07/21 00:46:44;;;;;;;;;2.00;1.00;;;;;23.87;49.27;101685.06;6148739;23;45515;-79
2021/07/21 00:49:09;;;;;;;;;0.00;0.00;;;;;23.88;49.30;101682.38;6147447;23;47043;-79
2021/07/21 00:51:35;;;;;;;;;0.50;0.00;;;;;23.62;49.45;101636.25;6147957;23;45237;-78
2021/07/21 00:54:00;;;;;;;;;1.00;1.00;;;;;23.91;49.44;101686.72;6148193;23;45339;-79
2021/07/21 00:56:26;;;;;;;;;0.50;0.50;;;;;23.78;49.41;101665.84;6147811;23;45276;-79
2021/07/21 00:58:51;;;;;;;;;0.00;0.00;;;;;23.76;49.37;101661.50;6147724;23;46585;-78
2021/07/21 01:01:17;;;;;;;;;0.00;0.00;;;;;23.67;49.41;101652.91;6147545;23;45411;-78
2021/07/21 01:03:42;;;;;;;;;0.50;0.00;;;;;23.89;49.20;101689.41;6148178;23;45344;-78
2021/07/21 01:06:09;;;;;;;;;1.25;1.00;;;;;23.88;49.85;101692.13;6148202;23;45302;-78
2021/07/21 01:08:34;;;;;;;;;0.00;0.00;;;;;23.78;49.25;101684.47;6147753;23;46446;-79
2021/07/21 01:11:14;;;;;;;;;0.50;0.00;;;;;23.83;49.22;101692.28;6147419;23;45466;-79
2021/07/21 01:13:56;;;;;;;;;0.00;0.00;;;;;23.73;49.52;101683.72;6148242;23;45347;-80
2021/07/21 01:16:26;;;;;;;;;0.25;0.00;;;;;23.74;49.61;101682.81;6148632;23;45412;-78
2021/07/21 01:19:14;;;;;;;;;1.00;0.00;;;;;23.77;49.64;101695.16;6147940;23;45389;-79
2021/07/21 01:22:17;;;;;;;;;0.00;0.00;;;;;23.75;49.42;101687.22;6147875;23;45316;-79
2021/07/21 01:25:27;;;;;;;;;0.00;0.00;;;;;23.68;49.84;101677.72;6147892;22;45269;-78
2021/07/21 01:27:54;;;;;;;;;0.50;0.50;;;;;23.65;49.75;101678.66;6056653;23;45792;-79
2021/07/21 01:30:24;;;;;;;;;0.00;0.00;;;;;23.72;49.93;101684.66;6056590;23;46834;-80
2021/07/21 01:32:54;;;;;;;;;1.00;1.00;;;;;23.58;50.08;101665.63;6057099;23;45370;-79
2021/07/21 01:35:23;;;;;;;;;0.00;0.00;;;;;23.61;49.90;101677.00;6056981;23;45669;-79
2021/07/21 01:38:01;;;;;;;;;0.50;0.50;;;;;23.57;49.87;101661.22;6057521;23;45258;-79
2021/07/21 01:40:32;;;;;;;;;2.50;2.50;;;;;23.55;50.32;101669.22;6056543;23;45277;-79
2021/07/21 01:42:59;;;;;;;;;1.25;1.25;;;;;23.40;50.15;101659.97;6057145;23;45370;-80
2021/07/21 01:45:28;;;;;;;;;0.00;0.00;;;;;23.52;49.86;101686.16;6058883;23;45398;-79
2021/07/21 01:47:56;;;;;;;;;1.75;0.00;;;;;23.49;49.93;101693.34;6059117;23;45414;-79
2021/07/21 01:50:22;;;;;;;;;0.25;0.25;;;;;23.31;50.24;101660.22;6034216;23;48498;-79
2021/07/21 01:52:48;;;;;;;;;0.00;0.00;;;;;23.32;50.66;101680.53;6058656;23;45641;-77
2021/07/21 01:55:17;;;;;;;;;0.25;0.25;;;;;23.46;50.76;101698.75;6058019;23;45425;-78
2021/07/21 01:57:47;;;;;;;;;0.00;0.00;;;;;23.47;50.66;101704.03;6059399;23;45363;-78
2021/07/21 02:00:13;;;;;;;;;0.75;0.50;;;;;23.43;50.29;101694.41;6034352;23;47193;-78
2021/07/21 02:02:43;;;;;;;;;2.00;0.00;;;;;23.39;50.72;101690.97;6139345;23;45304;-78
2021/07/21 02:05:10;;;;;;;;;0.00;0.00;;;;;23.39;50.46;101708.69;6149826;23;45343;-79
2021/07/21 02:07:37;;;;;;;;;1.00;0.75;;;;;23.22;50.48;101683.50;6150131;23;45318;-79
2021/07/21 02:10:05;;;;;;;;;2.75;0.00;;;;;23.22;50.81;101694.13;6146940;23;48449;-79
2021/07/21 02:12:35;;;;;;;;;0.50;0.00;;;;;23.12;50.79;101692.66;6148756;23;45340;-80
2021/07/21 02:15:00;;;;;;;;;2.50;0.00;;;;;23.20;50.36;101698.59;6149754;23;45320;-80
2021/07/21 02:17:27;;;;;;;;;1.00;1.00;;;;;23.22;50.91;101699.44;6150021;23;45221;-79
2021/07/21 02:19:53;;;;;;;;;0.00;0.00;;;;;23.23;50.85;101698.50;6149032;23;46230;-77
2021/07/21 02:22:21;;;;;;;;;0.00;0.00;;;;;23.15;50.46;101693.41;6147070;23;45380;-80
2021/07/21 02:24:47;;;;;;;;;2.00;0.00;;;;;23.14;50.86;101704.97;6149557;23;45705;-77
2021/07/21 02:27:13;;;;;;;;;1.50;1.00;;;;;23.10;51.02;101700.66;6149702;23;45305;-77
2021/07/21 02:29:39;;;;;;;;;0.00;0.00;;;;;23.11;50.62;101704.16;6149389;23;46104;-77
2021/07/21 02:32:17;;;;;;;;;0.00;0.00;;;;;23.09;51.07;101703.34;6149262;23;45378;-77
2021/07/21 02:34:44;;;;;;;;;0.00;0.00;;;;;23.01;50.73;101695.59;6149768;23;45335;-78
2021/07/21 02:37:14;;;;;;;;;0.00;0.00;;;;;23.00;50.77;101694.72;6149183;23;45416;-80
2021/07/21 02:39:42;;;;;;;;;1.00;0.00;;;;;22.93;51.38;101687.84;6149330;23;45260;-79
2021/07/21 02:42:07;;;;;;;;;0.00;0.00;;;;;22.94;51.28;101694.91;6149160;23;45434;-79
2021/07/21 02:44:32;;;;;;;;;0.75;0.75;;;;;22.96;51.00;101697.50;6148882;23;49048;-79
2021/07/21 02:46:57;;;;;;;;;0.00;0.00;;;;;22.80;51.10;101673.19;6149580;23;45323;-79
2021/07/21 02:49:23;;;;;;;;;1.00;0.50;;;;;22.94;51.89;101707.31;6149026;23;45284;-79
2021/07/21 02:51:52;;;;;;;;;1.50;0.75;;;;;22.74;51.84;101677.75;6146678;23;45420;-79
2021/07/21 02:54:28;;;;;;;;;2.00;1.25;;;;;22.86;51.76;101699.56;6146768;22;45270;-80
2021/07/21 02:56:57;;;;;;;;;0.00;0.00;;;;;22.86;52.12;101707.53;6149704;23;45258;-81
2021/07/21 02:59:39;;;;;;;;;0.50;0.50;;;;;22.84;51.66;101710.22;6148908;23;46641;-78
2021/07/21 03:02:07;;;;;;;;;1.00;1.00;;;;;22.84;52.30;101702.25;6149135;23;45324;-80
2021/07/21 03:04:34;;;;;;;;;1.25;0.75;;;;;22.86;52.01;101707.53;6149120;23;45314;-79
2021/07/21 03:07:01;;;;;;;;;1.00;1.00;;;;;22.72;51.60;101690.19;6148674;23;45292;-80
2021/07/21 03:09:28;;;;;;;;;1.00;1.00;;;;;22.70;52.04;101700.00;6149012;23;46238;-79
2021/07/21 03:11:57;;;;;;;;;0.00;0.00;;;;;22.75;52.20;101713.13;6148986;23;45332;-81
2021/07/21 03:14:23;;;;;;;;;1.00;1.00;;;;;22.65;51.98;101700.13;6147010;23;45340;-79
2021/07/21 03:16:53;;;;;;;;;0.00;0.00;;;;;22.61;51.92;101708.19;6149475;23;45339;-79
2021/07/21 03:19:23;;;;;;;;;0.00;0.00;;;;;22.62;52.14;101720.53;6148841;23;45283;-79
2021/07/21 03:21:51;;;;;;;;;0.00;0.00;;;;;22.60;52.25;101719.72;6145982;23;45373;-79
2021/07/21 03:24:19;;;;;;;;;0.50;0.50;;;;;22.62;52.65;101718.78;6149016;23;45320;-79
2021/07/21 03:26:45;;;;;;;;;2.75;1.25;;;;;22.67;52.12;101717.78;6149350;23;45219;-79
2021/07/21 03:29:13;;;;;;;;;0.00;0.00;;;;;22.58;51.94;101701.19;6148551;23;45347;-80
2021/07/21 03:31:40;;;;;;;;;0.75;0.00;;;;;22.57;52.55;101711.81;6148988;23;45379;-79
2021/07/21 03:34:10;;;;;;;;;2.00;0.50;;;;;22.57;52.49;101720.66;6148601;23;45343;-79
2021/07/21 03:36:39;;;;;;;;;0.00;0.00;;;;;22.59;52.80;101725.94;6148492;23;45347;-79
2021/07/21 03:39:06;;;;;;;;;0.00;0.00;;;;;22.62;52.49;101720.53;6146559;23;46565;-79
2021/07/21 03:41:36;;;;;;;;;1.00;1.00;;;;;22.19;52.79;101648.25;6146732;23;45839;-78
2021/07/21 03:44:04;;;;;;;;;0.75;0.00;;;;;22.55;52.96;101708.31;6149013;23;45268;-79
2021/07/21 03:46:30;;;;;;;;;2.25;0.50;;;;;22.59;52.75;101716.19;6146892;23;45266;-78
2021/07/21 03:48:59;;;;;;;;;0.25;0.25;;;;;22.40;53.08;101694.56;6146654;23;48297;-79
2021/07/21 03:51:25;;;;;;;;;2.00;1.00;;;;;22.36;53.46;101685.78;6147187;23;45237;-79
2021/07/21 03:53:51;;;;;;;;;1.25;0.00;;;;;22.42;53.41;101700.72;6148595;23;45324;-79
2021/07/21 03:56:17;;;;;;;;;0.00;0.00;;;;;22.36;53.24;101690.25;6147037;23;45394;-78
2021/07/21 03:58:43;;;;;;;;;0.25;0.00;;;;;22.44;53.58;101720.09;6148029;23;45377;-79
2021/07/21 04:01:08;;;;;;;;;0.50;0.00;;;;;22.43;53.10;101730.75;6147992;23;45304;-78
2021/07/21 04:03:37;;;;;;;;;0.25;0.25;;;;;22.39;53.17;101728.16;6146074;23;45429;-79
2021/07/21 04:06:04;;;;;;;;;2.00;1.00;;;;;22.24;53.54;101700.25;6148081;23;45183;-79
2021/07/21 04:08:30;;;;;;;;;0.00;0.00;;;;;22.21;53.54;101697.69;6147219;23;46704;-78
2021/07/21 04:10:56;;;;;;;;;1.00;1.00;;;;;22.33;54.16;101717.69;6147718;23;45386;-80
2021/07/21 04:13:23;;;;;;;;;2.00;2.00;;;;;22.33;53.98;101720.34;6145921;23;45388;-80
2021/07/21 04:15:51;;;;;;;;;2.50;1.00;;;;;22.25;54.13;101714.38;6148443;23;45394;-79
2021/07/21 04:18:20;;;;;;;;;0.25;0.00;;;;;22.33;54.55;101720.34;6147957;23;45304;-80
2021/07/21 04:20:46;;;;;;;;;1.00;1.00;;;;;22.35;54.29;101722.97;6148118;23;45317;-77
2021/07/21 04:23:12;;;;;;;;;0.00;0.00;;;;;22.19;54.69;101695.97;6148274;23;45430;-79
2021/07/21 04:25:38;;;;;;;;;3.25;1.00;;;;;22.31;53.99;101708.03;6148376;23;45324;-80
2021/07/21 04:28:04;;;;;;;;;1.00;0.00;;;;;22.35;53.82;101718.53;6147525;23;46432;-79
2021/07/21 04:30:31;;;;;;;;;2.00;0.00;;;;;22.41;54.71;101733.44;6147514;23;45477;-79
2021/07/21 04:32:58;;;;;;;;;0.00;0.00;;;;;22.35;53.99;101728.28;6147740;23;45351;-81
2021/07/21 04:35:26;;;;;;;;;0.50;0.25;;;;;22.29;54.22;101710.75;6146276;23;45265;-78
2021/07/21 04:37:52;;;;;;;;;1.00;0.00;;;;;22.34;54.23;101721.22;6147499;23;45421;-79
2021/07/21 04:40:17;;;;;;;;;0.00;0.00;;;;;22.28;53.72;101719.63;6147488;23;45316;-78
2021/07/21 04:42:44;;;;;;;;;1.00;1.00;;;;;22.32;54.21;101731.88;6147567;23;45305;-78
2021/07/21 04:45:12;;;;;;;;;1.00;1.00;;;;;22.20;54.35;101730.41;6147739;23;45314;-79
2021/07/21 04:47:38;;;;;;;;;1.25;1.25;;;;;22.30;53.92;101756.69;6146428;23;45374;-78
2021/07/21 04:50:06;;;;;;;;;2.50;0.75;;;;;22.30;54.44;101759.34;6145626;23;45269;-78
2021/07/21 04:52:32;;;;;;;;;1.00;1.00;;;;;22.21;54.50;101733.94;6147428;23;45304;-79
2021/07/21 04:54:57;;;;;;;;;1.00;0.50;;;;;22.30;54.46;101749.63;6147850;23;45339;-78
2021/07/21 04:57:23;;;;;;;;;3.25;1.25;;;;;22.34;54.07;101745.97;6147178;23;46006;-78
2021/07/21 04:59:49;;;;;;;;;1.00;1.00;;;;;22.26;53.99;101724.06;6145506;23;45333;-79
2021/07/21 05:02:16;;;;;;;;;1.00;1.00;;;;;22.47;54.01;101758.91;6146839;23;45311;-80
2021/07/21 05:04:42;;;;;;;;;0.00;0.00;;;;;22.48;54.05;101758.03;6147881;23;45280;-79
2021/07/21 05:07:08;;;;;;;;;1.50;1.50;;;;;22.50;53.85;101759.72;6146871;23;45279;-79
2021/07/21 05:09:33;;;;;;;;;0.50;0.50;;;;;22.39;53.59;101740.56;6147507;23;45209;-79
2021/07/21 05:11:58;;;;;;;;;1.00;1.00;;;;;22.48;53.98;101771.28;6147569;23;45394;-78
2021/07/21 05:14:24;;;;;;;;;1.25;0.75;;;;;22.51;54.19;101766.75;6147523;23;45276;-79
2021/07/21 05:16:49;;;;;;;;;5.50;2.00;;;;;22.50;54.07;101769.47;6146836;23;54904;-79
2021/07/21 05:19:15;;;;;;;;;5.00;1.50;;;;;22.48;54.07;101776.59;6145091;23;46131;-79
2021/07/21 05:21:40;;;;;;;;;1.25;0.00;;;;;22.48;53.75;101773.94;6147533;23;45348;-78
2021/07/21 05:24:05;;;;;;;;;1.00;1.00;;;;;22.51;53.65;101765.91;6147348;23;45463;-80
2021/07/21 05:26:31;;;;;;;;;2.50;1.00;;;;;22.60;53.45;101772.81;6146738;23;45337;-79
2021/07/21 05:28:57;;;;;;;;;0.75;0.75;;;;;22.53;54.01;101764.97;6147811;23;45231;-78
2021/07/21 05:31:23;;;;;;;;;0.75;0.75;;;;;22.58;53.61;101774.59;6146872;23;45342;-79
2021/07/21 05:33:49;;;;;;;;;3.00;1.00;;;;;22.67;53.98;101790.31;6145462;23;45436;-78
2021/07/21 05:36:14;;;;;;;;;0.00;0.00;;;;;22.75;53.34;101790.97;6144115;23;47016;-79
2021/07/21 05:38:40;;;;;;;;;0.75;0.50;;;;;22.71;52.88;101768.06;6147080;23;45245;-78
2021/07/21 05:41:09;;;;;;;;;5.25;1.00;;;;;22.74;53.28;101777.72;6147492;23;45232;-79
2021/07/21 05:43:35;;;;;;;;;2.00;2.00;;;;;22.78;52.95;101787.34;6147530;23;45364;-80
2021/07/21 05:46:00;;;;;;;;;2.50;1.00;;;;;22.86;53.46;101787.16;6146241;23;45356;-79
2021/07/21 05:48:25;;;;;;;;;1.50;0.25;;;;;22.89;53.45;101792.38;6144269;23;45308;-80
2021/07/21 05:50:51;;;;;;;;;1.50;1.00;;;;;22.93;53.12;101794.03;6147302;23;45333;-80
2021/07/21 05:53:16;;;;;;;;;3.00;1.75;;;;;23.08;53.29;101802.50;6147096;23;45331;-79
2021/07/21 05:55:41;;;;;;;;;1.00;1.00;;;;;23.14;53.01;101807.63;6146980;23;46032;-78
2021/07/21 05:58:08;;;;;;;;;3.50;1.00;;;;;22.96;52.22;101766.53;6146756;23;45391;-79
2021/07/21 06:00:34;;;;;;;;;1.75;0.50;;;;;23.23;52.49;101810.06;6146378;23;45398;-80
2021/07/21 06:02:59;;;;;;;;;0.25;0.25;;;;;23.20;52.74;101801.28;6147277;23;45541;-80
2021/07/21 06:05:24;;;;;;;;;1.00;1.00;;;;;23.27;52.16;101819.66;6146955;23;54672;-80
2021/07/21 06:07:50;;;;;;;;;1.00;1.00;;;;;23.32;51.98;101808.91;6146862;23;45228;-80
2021/07/21 06:10:15;;;;;;;;;0.50;0.00;;;;;23.07;51.87;101769.78;6145064;23;46483;-80
2021/07/21 06:12:40;;;;;;;;;1.00;0.00;;;;;23.32;52.21;101808.03;6146591;23;45464;-80
2021/07/21 06:15:06;;;;;;;;;2.50;1.25;;;;;23.44;52.29;101806.84;6145607;23;45281;-80
2021/07/21 06:17:33;;;;;;;;;1.00;1.00;;;;;23.54;51.91;101822.50;6144970;23;45289;-80
2021/07/21 06:19:59;;;;;;;;;1.00;1.00;;;;;23.50;51.76;101815.53;6147069;23;45205;-80
2021/07/21 06:22:25;;;;;;;;;1.25;1.00;;;;;23.61;51.46;101831.16;6147039;23;45202;-80
2021/07/21 06:24:50;;;;;;;;;1.25;0.25;;;;;23.61;51.60;101838.28;6146611;23;46121;-80
2021/07/21 06:27:16;;;;;;;;;2.25;0.75;;;;;23.54;51.51;101833.13;6146023;23;45334;-79
2021/07/21 06:29:42;;;;;;;;;3.00;1.50;;;;;23.43;51.52;101821.06;6146170;23;45739;-79
2021/07/21 06:32:08;;;;;;;;;3.00;3.00;;;;;23.45;51.58;101844.00;6148070;23;45286;-79
2021/07/21 06:34:34;;;;;;;;;1.00;0.00;;;;;23.49;51.62;101850.13;6148418;23;45380;-79
2021/07/21 06:36:59;;;;;;;;;2.50;2.00;;;;;23.45;51.62;101843.13;6145721;23;45277;-81
2021/07/21 06:39:24;;;;;;;;;2.50;2.00;;;;;23.53;51.46;101847.34;6148598;23;45352;-79
2021/07/21 06:41:50;;;;;;;;;5.00;2.00;;;;;23.32;51.83;101822.19;6146245;23;45325;-79
2021/07/21 06:44:15;;;;;;;;;4.00;3.50;;;;;23.48;51.43;101833.28;6145693;23;59480;-80
2021/07/21 06:46:41;;;;;;;;;1.00;1.00;;;;;23.65;51.91;101851.41;6148122;23;45393;-81
2021/07/21 06:49:06;;;;;;;;;4.00;1.00;;;;;23.65;51.61;101851.41;6148197;23;45207;-79
2021/07/21 06:51:31;;;;;;;;;0.50;0.50;;;;;23.65;50.98;101843.41;6147936;23;45276;-78
2021/07/21 06:53:57;;;;;;;;;1.00;0.50;;;;;23.60;50.90;101828.53;6147386;23;45283;-78
2021/07/21 06:56:22;;;;;;;;;4.00;2.25;;;;;23.58;51.27;101828.56;6147661;23;45240;-78
2021/07/21 06:58:50;;;;;;;;;3.00;1.00;;;;;23.81;50.91;101861.59;6148069;23;45230;-79
2021/07/21 07:01:15;;;;;;;;;0.00;0.00;;;;;23.66;50.57;101831.91;6147553;23;45355;-79
2021/07/21 07:03:42;;;;;;;;;0.25;0.25;;;;;23.97;50.40;101869.97;6147598;23;45978;-79
2021/07/21 07:06:08;;;;;;;;;0.50;0.50;;;;;24.09;49.96;101862.53;6147440;23;45299;-79
2021/07/21 07:08:34;;;;;;;;;1.50;1.50;;;;;24.16;49.54;101859.69;6148621;23;45310;-79
2021/07/21 07:10:59;;;;;;;;;1.50;0.50;;;;;24.08;49.38;101831.56;6147804;23;49989;-79
2021/07/21 07:13:24;;;;;;;;;1.25;1.00;;;;;24.33;49.56;101863.59;6147166;23;45330;-78
2021/07/21 07:15:50;;;;;;;;;0.50;0.50;;;;;24.34;49.78;101854.69;6147731;23;45213;-79
2021/07/21 07:18:18;;;;;;;;;0.00;0.00;;;;;24.47;49.48;101871.13;6147431;23;45256;-78
2021/07/21 07:20:44;;;;;;;;;1.00;1.00;;;;;24.52;49.35;101866.53;6147670;23;45375;-78
2021/07/21 07:23:10;;;;;;;;;0.75;0.75;;;;;24.31;49.00;101827.34;6147869;23;45462;-78
2021/07/21 07:25:36;;;;;;;;;3.00;3.00;;;;;24.57;49.29;101852.22;6147837;23;45343;-79
2021/07/21 07:28:01;;;;;;;;;2.00;0.25;;;;;24.64;48.78;101859.06;6147820;23;45356;-78
2021/07/21 07:30:27;;;;;;;;;1.25;1.25;;;;;24.72;49.27;101853.50;6148470;23;45296;-77
2021/07/21 07:32:52;;;;;;;;;2.25;2.25;;;;;24.71;48.80;101852.59;6147900;23;46199;-79
2021/07/21 07:35:17;;;;;;;;;1.75;1.25;;;;;24.80;48.81;101870.94;6147360;23;50897;-79
2021/07/21 07:37:43;;;;;;;;;1.00;1.00;;;;;24.85;48.71;101865.47;6148447;23;45329;-78
2021/07/21 07:40:09;;;;;;;;;5.00;0.75;;;;;24.82;48.49;101859.38;6147852;23;45262;-78
2021/07/21 07:42:35;;;;;;;;;0.00;0.00;;;;;24.83;48.66;101847.81;6147500;23;45371;-79
2021/07/21 07:45:01;;;;;;;;;3.25;2.25;;;;;24.95;48.47;101866.03;6145927;23;45278;-79
2021/07/21 07:47:26;;;;;;;;;0.50;0.25;;;;;24.90;48.21;101868.88;6148285;23;45201;-79
2021/07/21 07:49:51;;;;;;;;;2.75;2.75;;;;;24.75;48.16;101859.56;6148167;23;45279;-78
2021/07/21 07:52:17;;;;;;;;;0.75;0.75;;;;;24.66;48.26;101854.56;6147238;23;49517;-78
2021/07/21 07:54:43;;;;;;;;;1.00;1.00;;;;;24.79;48.33;101863.88;6147909;23;45223;-79
2021/07/21 07:57:09;;;;;;;;;0.25;0.25;;;;;24.81;48.55;101869.16;6147465;23;45289;-78
2021/07/21 07:59:36;;;;;;;;;1.00;1.00;;;;;24.75;48.20;101845.41;6148195;23;45303;-78
2021/07/21 08:02:01;;;;;;;;;1.00;1.00;;;;;24.85;48.18;101844.16;6147708;23;45370;-79
2021/07/21 08:04:26;;;;;;;;;1.00;1.00;;;;;24.77;47.88;101820.47;6147715;23;45418;-78
2021/07/21 08:06:52;;;;;;;;;0.75;0.75;;;;;25.01;47.08;101849.84;6148133;23;45301;-78
2021/07/21 08:09:17;;;;;;;;;0.00;0.00;;;;;25.19;47.11;101860.78;6147448;23;52832;-78
2021/07/21 08:11:45;;;;;;;;;1.50;1.50;;;;;25.19;46.21;101858.13;6147129;23;45395;-79
2021/07/21 08:14:12;;;;;;;;;1.00;1.00;;;;;25.16;46.56;101844.91;6145792;23;45278;-79
2021/07/21 08:16:37;;;;;;;;;0.00;0.00;;;;;25.36;46.38;101861.97;6147719;23;45276;-78
2021/07/21 08:19:03;;;;;;;;;0.00;0.00;;;;;25.42;46.39;101859.09;6148289;23;45391;-77
2021/07/21 08:21:28;;;;;;;;;2.00;0.00;;;;;25.42;45.99;101859.09;6147542;23;46357;-79
2021/07/21 08:23:54;;;;;;;;;1.75;0.25;;;;;25.41;45.73;101865.34;6147222;23;55850;-76
2021/07/21 08:26:19;;;;;;;;;2.50;0.75;;;;;25.26;44.81;101848.09;6146375;23;45433;-77
2021/07/21 08:28:44;;;;;;;;;0.00;0.00;;;;;25.37;45.24;101867.25;6147859;23;45203;-78
2021/07/21 08:31:10;;;;;;;;;0.00;0.00;;;;;25.26;45.45;101851.66;6147441;23;45603;-77
2021/07/21 08:33:35;;;;;;;;;2.50;1.75;;;;;25.48;45.27;101864.19;6147060;23;45272;-78
2021/07/21 08:36:00;;;;;;;;;1.00;1.00;;;;;25.61;45.12;101874.44;6147562;23;45406;-79
2021/07/21 08:38:26;;;;;;;;;0.00;0.00;;;;;25.68;45.47;101854.63;6147274;23;51927;-78
2021/07/21 08:40:54;;;;;;;;;0.25;0.00;;;;;25.86;44.82;101870.84;6147045;23;45224;-78
2021/07/21 08:43:20;;;;;;;;;0.00;0.00;;;;;25.97;45.26;101871.28;6147256;23;45592;-78
2021/07/21 08:45:45;;;;;;;;;1.00;1.00;;;;;25.99;45.01;101861.44;6147531;23;45454;-78
2021/07/21 08:48:12;;;;;;;;;3.00;2.00;;;;;26.04;45.18;101867.47;6147899;23;45279;-80
2021/07/21 08:50:37;;;;;;;;;0.25;0.25;;;;;26.12;45.07;101871.63;6146416;23;46428;-79
2021/07/21 08:53:03;;;;;;;;;1.75;1.00;;;;;26.24;44.94;101862.28;6146664;23;47711;-78
2021/07/21 08:55:29;;;;;;;;;1.75;1.75;;;;;26.35;44.74;101862.72;6144680;23;49974;-78
2021/07/21 08:57:55;;;;;;;;;1.00;1.00;;;;;26.39;43.63;101863.47;6147444;23;45746;-79
2021/07/21 09:00:21;;;;;;;;;0.00;0.00;;;;;26.46;43.96;101858.75;6146707;23;46346;-79
2021/07/21 09:02:46;;;;;;;;;1.00;1.00;;;;;26.49;43.52;101862.16;6144949;23;45444;-78
2021/07/21 09:05:15;;;;;;;;;1.50;0.75;;;;;26.49;43.83;101866.63;6146933;23;45374;-78
2021/07/21 09:07:41;;;;;;;;;0.00;0.00;;;;;26.59;43.26;101873.34;6147776;23;45327;-78
2021/07/21 09:10:15;;;;;;;;;1.00;1.00;;;;;26.52;42.87;101862.03;6146679;23;46173;-77
2021/07/21 09:12:42;;;;;;;;;0.00;0.00;;;;;26.55;42.92;101856.56;6147231;23;45230;-77
2021/07/21 09:15:10;;;;;;;;;0.50;0.50;;;;;26.62;42.82;101861.66;6147121;23;45369;-77
2021/07/21 09:17:36;;;;;;;;;1.25;1.25;;;;;26.60;42.70;101848.38;6147351;23;45423;-78
2021/07/21 09:20:03;;;;;;;;;0.50;0.50;;;;;26.62;42.63;101843.84;6147139;23;46216;-77
2021/07/21 09:22:35;;;;;;;;;0.00;0.00;;;;;26.71;41.55;101845.25;6147062;23;45321;-77
2021/07/21 09:25:12;;;;;;;;;2.00;0.00;;;;;26.82;41.86;101867.03;6146858;23;45346;-80
2021/07/21 09:27:43;;;;;;;;;0.50;0.00;;;;;26.86;42.32;101864.22;6147517;23;45347;-78
2021/07/21 09:30:10;;;;;;;;;0.75;0.75;;;;;26.85;42.40;101860.66;6144900;23;48337;-77
2021/07/21 09:32:51;;;;;;;;;2.75;1.25;;;;;26.94;42.25;101856.72;6146899;23;45351;-76
2021/07/21 09:35:17;;;;;;;;;1.00;1.00;;;;;26.99;42.22;101853.91;6147042;23;45196;-78
2021/07/21 09:37:42;;;;;;;;;2.00;2.00;;;;;26.94;41.61;101865.63;6146773;23;45340;-77
2021/07/21 09:40:08;;;;;;;;;0.25;0.00;;;;;26.97;41.78;101866.41;6146876;23;46195;-78
2021/07/21 09:42:36;;;;;;;;;1.00;1.00;;;;;26.99;41.50;101857.44;6146651;23;45297;-78
2021/07/21 09:45:07;;;;;;;;;0.00;0.00;;;;;26.92;42.13;101848.78;6146847;23;45342;-78
2021/07/21 09:47:33;;;;;;;;;1.75;1.00;;;;;27.04;41.41;101841.22;6147333;23;45315;-78
2021/07/21 09:50:13;;;;;;;;;0.00;0.00;;;;;27.19;41.76;101855.69;6146444;23;46934;-77
2021/07/21 09:52:46;;;;;;;;;0.00;0.00;;;;;27.32;41.58;101854.19;6146483;23;45331;-78
2021/07/21 09:55:15;;;;;;;;;2.25;1.00;;;;;27.28;41.20;101855.28;6146661;23;45474;-77
2021/07/21 09:57:42;;;;;;;;;1.25;0.50;;;;;27.30;41.21;101848.06;6147142;23;45235;-78
2021/07/21 10:00:19;;;;;;;;;3.00;1.00;;;;;27.29;41.31;101851.66;6146548;23;46090;-76
2021/07/21 10:03:24;;;;;;;;;0.00;0.00;;;;;27.19;40.21;101850.34;6146259;23;45487;-76
2021/07/21 10:05:58;;;;;;;;;3.00;1.50;;;;;27.09;40.43;101835.66;6147198;23;45443;-78
2021/07/21 10:08:43;;;;;;;;;0.00;0.00;;;;;27.28;40.60;101849.06;6147343;23;45328;-78
2021/07/21 10:11:31;;;;;;;;;0.00;0.00;;;;;27.29;40.00;101838.31;6147660;23;46452;-77
2021/07/21 10:13:59;;;;;;;;;1.50;1.50;;;;;27.42;40.31;101848.44;6148246;23;45348;-77
2021/07/21 10:16:36;;;;;;;;;1.00;1.00;;;;;27.44;40.65;101842.09;6148132;23;45490;-75
2021/07/21 10:19:18;;;;;;;;;0.00;0.00;;;;;27.33;39.56;101839.03;6148435;23;45240;-78
2021/07/21 10:21:51;;;;;;;;;1.50;1.00;;;;;27.41;40.00;101849.41;6148039;23;45488;-77
2021/07/21 10:24:18;;;;;;;;;0.00;0.00;;;;;27.25;39.28;101811.81;6146264;23;45246;-79
2021/07/21 10:26:45;;;;;;;;;3.00;1.75;;;;;27.54;39.73;101849.69;6148564;23;45307;-79
2021/07/21 10:29:12;;;;;;;;;0.50;0.50;;;;;27.51;39.77;101845.38;6146826;23;45317;-78
2021/07/21 10:31:39;;;;;;;;;0.75;0.75;;;;;27.54;39.11;101845.22;6148428;23;45558;-81
2021/07/21 10:34:05;;;;;;;;;2.00;0.75;;;;;27.61;39.94;101847.59;6147556;23;45378;-77
2021/07/21 10:36:31;;;;;;;;;0.00;0.00;;;;;27.66;39.87;101842.94;6147159;23;45329;-78
2021/07/21 10:38:59;;;;;;;;;0.00;0.00;;;;;27.73;40.40;101854.22;6147875;23;45370;-78
2021/07/21 10:41:28;;;;;;;;;2.00;1.00;;;;;27.79;40.04;101844.09;6145581;23;46649;-77
2021/07/21 10:43:56;;;;;;;;;1.00;1.00;;;;;27.81;40.07;101836.84;6148021;23;45299;-79
2021/07/21 10:46:40;;;;;;;;;0.50;0.50;;;;;27.93;40.28;101840.75;6147712;23;45345;-78
2021/07/21 10:55:06;;;;;;;;;0.00;0.00;;;;;27.97;40.55;101838.81;6147849;23;45342;-77
2021/07/21 11:00:23;;;;;;;;;2.00;1.00;;;;;28.13;40.75;101840.72;6147641;23;45345;-76
2021/07/21 11:02:51;;;;;;;;;2.00;1.00;;;;;28.24;40.54;101837.53;6146904;23;46217;-77
2021/07/21 11:05:29;;;;;;;;;0.00;0.00;;;;;28.32;39.98;101840.72;6170151;23;45827;-78
2021/07/21 11:07:55;;;;;;;;;0.00;0.00;;;;;28.18;40.16;101817.31;6148168;23;45376;-80
2021/07/21 11:10:37;;;;;;;;;1.25;1.00;;;;;28.27;39.94;101837.41;6147481;23;45307;-78
2021/07/21 11:13:05;;;;;;;;;2.00;1.50;;;;;28.29;39.89;101831.03;6147028;23;46162;-77
2021/07/21 11:15:33;;;;;;;;;0.50;0.25;;;;;28.32;40.39;101830.91;6146297;23;45316;-78
2021/07/21 11:18:24;;;;;;;;;2.00;0.25;;;;;28.33;39.96;101831.78;6144758;23;45347;-77
2021/07/21 11:20:56;;;;;;;;;2.00;0.00;;;;;28.27;40.68;101798.09;6146767;23;45390;-78
2021/07/21 11:23:46;;;;;;;;;1.00;1.00;;;;;28.40;40.52;101822.50;6144753;23;47160;-81
2021/07/21 11:26:34;;;;;;;;;0.75;0.75;;;;;28.29;40.06;101830.16;6147485;23;45260;-80
2021/07/21 11:29:29;;;;;;;;;0.00;0.00;;;;;28.18;40.50;101822.66;6129691;23;45811;-87
2021/07/21 11:31:54;;;;;;;;;0.00;0.00;;;;;28.16;40.32;101814.69;6145839;23;45313;-78
2021/07/21 11:34:28;;;;;;;;;2.00;0.50;;;;;28.11;40.29;101819.41;6147245;23;45423;-78
2021/07/21 11:37:18;;;;;;;;;1.00;1.00;;;;;28.19;39.92;101822.59;6147754;23;45293;-78
2021/07/21 11:39:53;;;;;;;;;0.50;0.00;;;;;28.17;39.97;101812.88;6147596;23;45472;-78
2021/07/21 11:42:33;;;;;;;;;0.75;0.50;;;;;28.16;39.08;101812.03;6145294;23;45301;-79
2021/07/21 11:45:12;;;;;;;;;1.50;1.00;;;;;28.07;39.97;101815.16;6146830;23;45304;-80